Cape Cod CGAS, MA

7:07 PM EDT on September 25, 2017 (GMT -0400)
Cape Cod Coast Guard Air Station

Weather History for KFMH - May, 2014

Change the Weather History Date:

Tuesday, May 13, 2014

  Actual Average Record
Temperature  
Mean Temperature 50 °F -  
Max Temperature 57 °F 60 °F 75 °F (2012)
Min Temperature 44 °F 43 °F 37 °F (2013)
Degree Days  
Heating Degree Days 14    
Moisture  
Dew Point 43 °F    
Average Humidity 74    
Maximum Humidity 87    
Minimum Humidity 56    
Precipitation  
Precipitation 0.00 in - - ()
Sea Level Pressure  
Sea Level Pressure 30.24 in    
Wind  
Wind Speed 13 mph (NE)    
Max Wind Speed 22 mph    
Max Gust Speed 30 mph    
Visibility 10 miles    
Events      
Averages and records for this station are not official NWS values.
T = Trace of Precipitation, MM = Missing Value Source: NWS Daily Summary

Daily Weather History Graph

Daily Weather History Graph

Search for Another Location

Airport or City:

Trip Planner

Search our weather history database for the weather conditions in past years. The results will help you decide how hot, cold, wet, or windy it might be!

Date:

Astronomy

May. 13, 2014 Rise Set
Actual Time 5:24 AM EDT 7:52 PM EDT
Civil Twilight 4:53 AM EDT 8:24 PM EDT
Nautical Twilight 4:14 AM EDT 9:03 PM EDT
Astronomical Twilight 3:30 AM EDT 9:47 PM EDT
Moon 6:50 PM EDT (5/13) 4:40 AM EDT (5/13)
Length of Visible Light 15h 31m
Length of Day
14h 28m
Waxing Gibbous, 98% of the Moon is Illuminated
May 13
Waxing Gibbous
May 14
Full
May 21
Last Quarter
May 28
New
Jun 5
First Quarter

Hourly Weather History & Observations

Time (EDT) Temp. Windchill Dew Point Humidity Pressure Visibility Wind Dir Wind Speed Gust Speed Precip Events Conditions
12:15 AM 57.2 °F - 51.8 °F 82% 30.04 in 10.0 mi WSW 6.9 mph - N/A   Partly Cloudy
12:35 AM 57.2 °F - 51.8 °F 82% 30.04 in 10.0 mi WSW 9.2 mph - N/A   Clear
12:55 AM 57.2 °F - 51.8 °F 82% 30.06 in 10.0 mi Variable 4.6 mph - N/A   Partly Cloudy
1:15 AM 57.2 °F - 51.8 °F 82% 30.07 in 10.0 mi NNW 9.2 mph - N/A   Partly Cloudy
1:35 AM 55.4 °F - 50.0 °F 82% 30.07 in 10.0 mi NNE 17.3 mph 24.2 mph N/A   Scattered Clouds
1:55 AM 51.8 °F - 46.4 °F 82% 30.09 in 10.0 mi NE 16.1 mph 27.6 mph N/A   Overcast
2:15 AM 51.8 °F - 44.6 °F 76% 30.10 in 10.0 mi NE 18.4 mph 27.6 mph N/A   Mostly Cloudy
2:35 AM 50.0 °F - 44.6 °F 82% 30.10 in 10.0 mi ENE 20.7 mph 28.8 mph N/A   Partly Cloudy
2:55 AM 51.8 °F - 44.6 °F 76% 30.12 in 10.0 mi ENE 20.7 mph 28.8 mph N/A   Mostly Cloudy
3:15 AM 51.8 °F - 42.8 °F 71% 30.12 in 10.0 mi ENE 19.6 mph 27.6 mph N/A   Overcast
3:35 AM 51.8 °F - 42.8 °F 71% 30.13 in 10.0 mi ENE 19.6 mph 26.5 mph N/A   Overcast
3:55 AM 51.8 °F - 42.8 °F 71% 30.13 in 10.0 mi NE 19.6 mph 27.6 mph N/A   Overcast
4:15 AM 51.8 °F - 42.8 °F 71% 30.13 in 10.0 mi ENE 19.6 mph 28.8 mph N/A   Overcast
4:35 AM 51.8 °F - 42.8 °F 71% 30.14 in 10.0 mi ENE 18.4 mph 29.9 mph N/A   Overcast
4:55 AM 51.8 °F - 42.8 °F 71% 30.14 in 10.0 mi ENE 16.1 mph 24.2 mph N/A   Overcast
5:15 AM 51.8 °F - 42.8 °F 71% 30.15 in 10.0 mi ENE 17.3 mph 23.0 mph N/A   Overcast
5:35 AM 50.0 °F - 42.8 °F 76% 30.17 in 10.0 mi NE 16.1 mph 23.0 mph N/A   Overcast
5:55 AM 50.0 °F - 42.8 °F 76% 30.18 in 10.0 mi NE 18.4 mph - N/A   Scattered Clouds
6:15 AM 50.0 °F - 42.8 °F 76% 30.19 in 10.0 mi ENE 11.5 mph 18.4 mph N/A   Clear
6:35 AM 50.0 °F - 42.8 °F 76% 30.20 in 10.0 mi NE 16.1 mph - N/A   Scattered Clouds
6:55 AM 50.0 °F - 42.8 °F 76% 30.21 in 10.0 mi NE 13.8 mph 20.7 mph N/A   Mostly Cloudy
7:15 AM 50.0 °F - 44.6 °F 82% 30.22 in 10.0 mi NE 15.0 mph 21.9 mph N/A   Mostly Cloudy
7:35 AM 51.8 °F - 44.6 °F 76% 30.23 in 10.0 mi NE 15.0 mph 20.7 mph N/A   Mostly Cloudy
7:55 AM 51.8 °F - 44.6 °F 76% 30.23 in 10.0 mi NE 16.1 mph 24.2 mph N/A   Scattered Clouds
8:15 AM 51.8 °F - 44.6 °F 76% 30.23 in 10.0 mi NE 17.3 mph - N/A   Scattered Clouds
9:15 AM 53.6 °F - 42.8 °F 67% 30.25 in 10.0 mi NE 20.7 mph - N/A   Scattered Clouds
9:35 AM 51.8 °F - 42.8 °F 71% 30.26 in 10.0 mi NNE 12.7 mph 24.2 mph N/A   Mostly Cloudy
9:55 AM 53.6 °F - 41.0 °F 62% 30.27 in 10.0 mi NE 13.8 mph 21.9 mph N/A   Mostly Cloudy
10:15 AM 53.6 °F - 41.0 °F 62% 30.27 in 10.0 mi NE 16.1 mph 23.0 mph N/A   Overcast
10:55 AM 53.6 °F - 42.8 °F 67% 30.28 in 10.0 mi NE 17.3 mph 23.0 mph N/A   Scattered Clouds
12:35 PM 53.6 °F - 41.0 °F 62% 30.30 in 10.0 mi NNE 12.7 mph 23.0 mph N/A   Scattered Clouds
12:55 PM 53.6 °F - 41.0 °F 62% 30.29 in 10.0 mi NE 18.4 mph - N/A   Scattered Clouds
1:15 PM 53.6 °F - 41.0 °F 62% 30.29 in 10.0 mi NE 16.1 mph - N/A   Mostly Cloudy
1:35 PM 53.6 °F - 41.0 °F 62% 30.29 in 10.0 mi NE 15.0 mph 21.9 mph N/A   Scattered Clouds
1:55 PM 53.6 °F - 41.0 °F 62% 30.29 in 10.0 mi NE 9.2 mph 20.7 mph N/A   Clear
2:15 PM 53.6 °F - 41.0 °F 62% 30.29 in 10.0 mi NE 15.0 mph 20.7 mph N/A   Clear
2:35 PM 53.6 °F - 41.0 °F 62% 30.29 in 10.0 mi NNE 15.0 mph 20.7 mph N/A   Partly Cloudy
2:55 PM 51.8 °F - 41.0 °F 67% 30.30 in 10.0 mi NNE 13.8 mph 21.9 mph N/A   Scattered Clouds
3:15 PM 50.0 °F - 41.0 °F 71% 30.30 in 10.0 mi NE 16.1 mph 21.9 mph N/A   Mostly Cloudy
3:35 PM 50.0 °F - 39.2 °F 66% 30.29 in 10.0 mi NE 11.5 mph 20.7 mph N/A   Mostly Cloudy
3:55 PM 50.0 °F - 41.0 °F 71% 30.29 in 10.0 mi NE 13.8 mph 20.7 mph N/A   Mostly Cloudy
4:15 PM 50.0 °F - 41.0 °F 71% 30.30 in 10.0 mi NE 13.8 mph - N/A   Overcast
4:35 PM 50.0 °F - 41.0 °F 71% 30.29 in 10.0 mi NE 15.0 mph - N/A   Overcast
4:55 PM 48.2 °F - 41.0 °F 76% 30.31 in 10.0 mi NE 12.7 mph - N/A   Overcast
5:15 PM 48.2 °F - 41.0 °F 76% 30.31 in 10.0 mi NE 11.5 mph - N/A   Overcast
5:35 PM 48.2 °F - 41.0 °F 76% 30.31 in 10.0 mi NNE 13.8 mph - N/A   Overcast
5:55 PM 48.2 °F - 41.0 °F 76% 30.31 in 10.0 mi NNE 8.1 mph - N/A   Overcast
6:15 PM 46.4 °F 41.5 °F 41.0 °F 81% 30.31 in 10.0 mi NNE 10.4 mph 17.3 mph N/A   Overcast
6:35 PM 46.4 °F 40.4 °F 41.0 °F 81% 30.30 in 10.0 mi NE 13.8 mph - N/A   Overcast
6:55 PM 46.4 °F 40.7 °F 41.0 °F 81% 30.30 in 10.0 mi NE 12.7 mph - N/A   Overcast
7:15 PM 46.4 °F 41.1 °F 41.0 °F 81% 30.30 in 10.0 mi NE 11.5 mph - N/A   Mostly Cloudy
7:35 PM 46.4 °F 42.9 °F 41.0 °F 81% 30.31 in 10.0 mi NNE 6.9 mph - N/A   Scattered Clouds
7:55 PM 46.4 °F 41.5 °F 41.0 °F 81% 30.31 in 10.0 mi NE 10.4 mph - N/A   Mostly Cloudy
8:15 PM 44.6 °F 40.2 °F 41.0 °F 87% 30.30 in 10.0 mi NE 8.1 mph - N/A   Overcast
8:35 PM 44.6 °F 40.7 °F 41.0 °F 87% 30.32 in 10.0 mi NNE 6.9 mph - N/A   Mostly Cloudy
9:15 PM 46.4 °F 44.3 °F 41.0 °F 81% 30.32 in 10.0 mi NE 4.6 mph - N/A   Overcast
9:35 PM 46.4 °F 42.9 °F 41.0 °F 81% 30.32 in 10.0 mi East 6.9 mph - N/A   Overcast
9:55 PM 46.4 °F 42.9 °F 41.0 °F 81% 30.32 in 10.0 mi ENE 6.9 mph - N/A   Overcast
10:15 PM 46.4 °F 44.3 °F 42.8 °F 87% 30.33 in 10.0 mi NE 4.6 mph - N/A   Overcast
10:35 PM 46.4 °F 42.4 °F 41.0 °F 81% 30.32 in 10.0 mi ENE 8.1 mph - N/A   Overcast
10:55 PM 46.4 °F 42.4 °F 41.0 °F 81% 30.32 in 10.0 mi ENE 8.1 mph - N/A   Overcast
11:15 PM 46.4 °F 43.5 °F 41.0 °F 81% 30.33 in 10.0 mi ENE 5.8 mph - N/A   Overcast
11:35 PM 46.4 °F 44.3 °F 41.0 °F 81% 30.33 in 10.0 mi ENE 4.6 mph - N/A   Overcast
11:55 PM 46.4 °F 42.9 °F 42.8 °F 87% 30.33 in 10.0 mi ENE 6.9 mph - N/A   Overcast